Bewolking Meer informatie Parkstad Weather Satellite


Neerslagradar Meer informatie Parkstad Rain Snow Radar


Onweersbuien Meer informatie Parkstad Lighntning


24/7 Weercamera Meer informatie Parkstad Weathercam


Natuurbrandrisico
CBI








METAR rapporten vliegvelden

   
EHAM - Amsterdam
Gewijzigd: 28-05-2022 00:25
Licht bewolkt  
Licht bewolkt  
   Wind: WNW 14.8 km/h
Wind: WNW 14.8 km/h
Temperatuur: 12°C
Dauwpunt: 9°C
Vochtigheid: 82%
Barometer: 1022 hPa
Satelliet beelden: Licht bewolkt
Zicht: meer dan 10 km
Bewolking: Licht bewolkt 914 m
EHAM 272225Z 30008KT 9999 FEW030TCU 12/09 Q1022 NOSIG
EBAW - Antwerpen
Gewijzigd: 28-05-2022 00:20
  
  
   Wind: Westen 7.4 km/h
Wind: Westen 7.4 km/h
Temperatuur: 13°C
Dauwpunt: 6°C
Vochtigheid: 63%
Barometer: 1024 hPa
Zicht: meer dan 10 km
Bewolking: Bewolking
EBAW 272220Z AUTO 26004KT 9999 // VV/// 13/06 Q1024
EGLL - London
Gewijzigd: 28-05-2022 00:20
Helder  
Helder  
   Wind: Noorden 9.3 km/h
Wind: Noorden 9.3 km/h
Temperatuur: 13°C
Dauwpunt: 4°C
Vochtigheid: 55%
Barometer: 1026 hPa
Satelliet beelden: Helder
Zicht: meer dan 10 km
Bewolking: Helder
EGLL 272220Z AUTO 35005KT 300V040 9999 NCD 13/04 Q1026
ELLX - Luxemburg
Gewijzigd: 28-05-2022 00:20
Helder  
Helder  
   Wind: NNW 13 km/h
Wind: NNW 13 km/h
Temperatuur: 11°C
Dauwpunt: 5°C
Vochtigheid: 67%
Barometer: 1023 hPa
Zicht: meer dan 10 km
Bewolking: Helder
ELLX 272220Z 34007KT CAVOK 11/05 Q1023 NOSIG
EDDM - München
Gewijzigd: 28-05-2022 00:20
Helder  
Helder  
   Wind: Westen 11.1 km/h
Wind: Westen 11.1 km/h
Temperatuur: 13°C
Dauwpunt: 12°C
Vochtigheid: 94%
Barometer: 1021 hPa
Zicht: meer dan 10 km
Bewolking: Helder
EDDM 272220Z AUTO 26006KT CAVOK 13/12 Q1021 NOSIG
LFPO - Parijs
Gewijzigd: 28-05-2022 00:30
Helder  
Helder  
   Wind: Noorden 9.3 km/h
Wind: Noorden 9.3 km/h
Temperatuur: 14°C
Dauwpunt: 8°C
Vochtigheid: 67%
Barometer: 1025 hPa
Zicht: meer dan 10 km
Bewolking: Helder
LFPO 272230Z AUTO 35005KT CAVOK 14/08 Q1025 BECMG 28010KT
EDDL - Düsseldorf
Gewijzigd: 28-05-2022 00:20
Helder  
Helder  
   Wind: WZW 9.3 km/h
Wind: WZW 9.3 km/h
Temperatuur: 9°C
Voelt als: 8°C
Dauwpunt: 5°C
Vochtigheid: 76%
Barometer: 1022 hPa
Zicht: meer dan 10 km
Bewolking: Helder
EDDL 272220Z AUTO 25005KT CAVOK 09/05 Q1022 NOSIG
EDDK - Köln/Bonn Duitsland
Gewijzigd: 28-05-2022 00:50
Helder  
Helder  
   Wind: varieert 3.7 km/h
Wind: varieert 3.7 km/h
Temperatuur: 9°C
Dauwpunt: 5°C
Vochtigheid: 76%
Barometer: 1023 hPa
Zicht: meer dan 10 km
Bewolking: Helder
EDDK 272250Z AUTO VRB02KT CAVOK 09/05 Q1023 NOSIG
TNCA - Oranjestad Aruba
Gewijzigd: 28-05-2022 00:00
Licht bewolkt  
Licht bewolkt  
   Wind: Oosten 35.2 km/h
Wind: Oosten 35.2 km/h
Temperatuur: 29°C
Gevoelstemperatuur: 33°C
Dauwpunt: 24°C
Vochtigheid: 74%
Barometer: 1011 hPa
Satelliet beelden: Licht bewolkt
Zicht: meer dan 10 km
Bewolking: Licht bewolkt 610 m
TNCA 272200Z 08019KT 9999 FEW020 29/24 Q1011 NOSIG
TNCC - Willemstad Curacao
Gewijzigd: 28-05-2022 00:00
Licht bewolkt  
Licht bewolkt  
   Wind: Oosten 22.2 km/h
Wind: Oosten 22.2 km/h
Temperatuur: 28°C
Gevoelstemperatuur: 31°C
Dauwpunt: 23°C
Vochtigheid: 74%
Barometer: 1012 hPa
Satelliet beelden: Licht bewolkt
Zicht: meer dan 10 km
Bewolking: Licht bewolkt 671 m
TNCC 272200Z 10012KT 9999 FEW022 28/23 Q1012 NOSIG=
LEAL - La Nucia Spanje
Gewijzigd: 28-05-2022 00:30
Helder  
Helder  
   Wind: Windstil
Wind: Windstil
Temperatuur: 20°C
Dauwpunt: 16°C
Vochtigheid: 78%
Barometer: 1018 hPa
Zicht: meer dan 10 km
Bewolking: Helder
LEAL 272230Z 00000KT CAVOK 20/16 Q1018 NOSIG
 

Script ontwikkeld door  Saratoga-weather.org Aangepast voor de template door  Weerstation Leuven

U vindt ons ook hier:

Het Weer Aktueel

WOW Nederland KNMI

Vereniging voor Weerkunde en Klimatologie

UK Met Office Weather Observation Website (WOW)

WeatherCloud

Weather Underground

Awekas

MeteoMap.Cloud

HAMweather, WeatherForYou, PWS Weather

Citizen Weather Observer Program (CWOP)

Apparatuur in gebruik:

Hardwareleverancier
Weerhuisje

Weerstation
Vantage Pro2+ UV

Weercomputer's
alix3d2 & wl330n

Weerprogramma's
Smartbedded

Satelliet NOAA's
WRX137 & KX137

Satelliet Eumetsat
Ayecka SR1 & Triax

Bliksemdetectie
Boltek StormTracker

Webleverancier
F-Service

Weerhuisje

Vantage Pro2+ UV

alix3d2 & wl330n

Smartbedded

WRX137 & KX137

Ayecka SR1 & Triax

Boltek StormTracker

F-Service